LVKBS SAME-SABE
Flight info
| Callsign | LVKBS |
|---|---|
| Flight time | 1h 31m |
| Altitude | 41000 |
| Route | KAMUV UT670 SNT |
| Aircraft | P180/L-SDGF/S |
Departure
| Time | 2026-04-21 00:43 |
|---|---|
| Airport | Governor Francisco Gabrielli International Airport (SAME) |
Arrival
| Time | 2026-04-21 02:14 |
|---|---|
| Airport | Aeroparque Jorge Newbery (SABE) |
| Time | Latitude | Longitude | Altitude | Speed | Heading |
|---|---|---|---|---|---|
| 2026-04-21 00:28 | -32.82817 | -68.79644 | 2406 ft | 0 kts | 227° |
| 2026-04-21 00:38 | -32.82818 | -68.79649 | 2397 ft | 2 kts | 261° |
| 2026-04-21 00:38 | -32.82791 | -68.79690 | 2400 ft | 12 kts | 332° |
| 2026-04-21 00:39 | -32.82700 | -68.79704 | 2397 ft | 14 kts | 8° |
| 2026-04-21 00:39 | -32.82672 | -68.79600 | 2398 ft | 15 kts | 79° |
| 2026-04-21 00:39 | -32.82616 | -68.79503 | 2396 ft | 16 kts | 8° |
| 2026-04-21 00:39 | -32.82497 | -68.79501 | 2398 ft | 18 kts | 2° |
| 2026-04-21 00:40 | -32.82366 | -68.79498 | 2397 ft | 20 kts | 359° |
| 2026-04-21 00:40 | -32.82225 | -68.79494 | 2399 ft | 21 kts | 1° |
| 2026-04-21 00:40 | -32.82074 | -68.79492 | 2397 ft | 23 kts | 0° |
| 2026-04-21 00:40 | -32.81935 | -68.79468 | 2399 ft | 18 kts | 31° |
| 2026-04-21 00:41 | -32.81927 | -68.79335 | 2397 ft | 19 kts | 115° |
| 2026-04-21 00:41 | -32.81963 | -68.79266 | 2398 ft | 0 kts | 180° |
| 2026-04-21 00:42 | -32.82283 | -68.79273 | 2397 ft | 86 kts | 181° |
| 2026-04-21 00:43 | -32.83075 | -68.79295 | 2531 ft | 130 kts | 182° |
| 2026-04-21 00:43 | -32.83999 | -68.79329 | 3021 ft | 134 kts | 179° |
| 2026-04-21 00:43 | -32.84931 | -68.79323 | 3476 ft | 145 kts | 180° |
| 2026-04-21 00:43 | -32.85972 | -68.79329 | 4229 ft | 149 kts | 180° |
| 2026-04-21 00:44 | -32.87026 | -68.79340 | 5009 ft | 157 kts | 180° |
| 2026-04-21 00:44 | -32.88196 | -68.79356 | 5471 ft | 177 kts | 181° |
| 2026-04-21 00:44 | -32.89426 | -68.79375 | 6193 ft | 175 kts | 181° |
| 2026-04-21 00:45 | -32.91693 | -68.78371 | 7436 ft | 189 kts | 134° |
| 2026-04-21 00:45 | -32.92281 | -68.76947 | 7990 ft | 198 kts | 102° |
| 2026-04-21 00:45 | -32.92347 | -68.75296 | 8578 ft | 201 kts | 89° |
| 2026-04-21 00:45 | -32.92352 | -68.73611 | 9153 ft | 205 kts | 89° |
| 2026-04-21 00:46 | -32.92369 | -68.71914 | 9741 ft | 206 kts | 89° |
| 2026-04-21 00:46 | -32.92392 | -68.70188 | 10253 ft | 210 kts | 89° |
| 2026-04-21 00:46 | -32.92414 | -68.68451 | 10717 ft | 215 kts | 89° |
| 2026-04-21 00:46 | -32.92434 | -68.66657 | 11234 ft | 219 kts | 88° |
| 2026-04-21 00:47 | -32.92454 | -68.64828 | 11747 ft | 223 kts | 88° |
| 2026-04-21 00:47 | -32.92474 | -68.62962 | 12273 ft | 228 kts | 88° |
| 2026-04-21 00:47 | -32.92495 | -68.61054 | 12780 ft | 232 kts | 88° |
| 2026-04-21 00:47 | -32.92514 | -68.59119 | 13283 ft | 236 kts | 86° |
| 2026-04-21 00:48 | -32.92437 | -68.57143 | 13760 ft | 241 kts | 85° |
| 2026-04-21 00:48 | -32.92443 | -68.55152 | 14223 ft | 245 kts | 88° |
| 2026-04-21 00:48 | -32.92448 | -68.53108 | 14681 ft | 248 kts | 86° |
| 2026-04-21 00:48 | -32.92411 | -68.51044 | 15116 ft | 251 kts | 85° |
| 2026-04-21 00:49 | -32.92370 | -68.48956 | 15537 ft | 254 kts | 86° |
| 2026-04-21 00:49 | -32.92339 | -68.46844 | 15962 ft | 257 kts | 86° |
| 2026-04-21 00:49 | -32.92311 | -68.44702 | 16382 ft | 260 kts | 86° |
| 2026-04-21 00:49 | -32.92278 | -68.42540 | 16790 ft | 263 kts | 86° |
| 2026-04-21 00:50 | -32.92243 | -68.40347 | 17197 ft | 265 kts | 86° |
| 2026-04-21 00:50 | -32.92210 | -68.38142 | 17600 ft | 268 kts | 87° |
| 2026-04-21 00:50 | -32.92176 | -68.35915 | 17993 ft | 270 kts | 87° |
| 2026-04-21 00:50 | -32.92140 | -68.33661 | 18378 ft | 273 kts | 87° |
| 2026-04-21 00:51 | -32.92104 | -68.31391 | 18719 ft | 275 kts | 87° |
| 2026-04-21 00:51 | -32.92067 | -68.29135 | 19061 ft | 276 kts | 87° |
| 2026-04-21 00:51 | -32.92030 | -68.26846 | 19407 ft | 277 kts | 87° |
| 2026-04-21 00:51 | -32.91994 | -68.24547 | 19751 ft | 278 kts | 87° |
| 2026-04-21 00:52 | -32.91958 | -68.22237 | 20091 ft | 280 kts | 87° |
| 2026-04-21 00:52 | -32.91920 | -68.19924 | 20432 ft | 281 kts | 87° |
| 2026-04-21 00:52 | -32.91879 | -68.17589 | 20813 ft | 282 kts | 87° |
| 2026-04-21 00:52 | -32.91839 | -68.15258 | 21194 ft | 283 kts | 87° |
| 2026-04-21 00:53 | -32.91798 | -68.12897 | 21571 ft | 285 kts | 88° |
| 2026-04-21 00:53 | -32.91756 | -68.10533 | 22002 ft | 286 kts | 88° |
| 2026-04-21 00:53 | -32.91714 | -68.08154 | 22379 ft | 288 kts | 88° |
| 2026-04-21 00:53 | -32.91671 | -68.05761 | 22781 ft | 290 kts | 88° |
| 2026-04-21 00:54 | -32.91628 | -68.03382 | 23172 ft | 292 kts | 88° |
| 2026-04-21 00:54 | -32.91582 | -68.00927 | 23578 ft | 294 kts | 88° |
| 2026-04-21 00:54 | -32.91538 | -67.98520 | 23944 ft | 295 kts | 88° |
| 2026-04-21 00:54 | -32.91492 | -67.96063 | 24287 ft | 297 kts | 87° |
| 2026-04-21 00:55 | -32.91445 | -67.93601 | 24627 ft | 299 kts | 87° |
| 2026-04-21 00:55 | -32.91396 | -67.91118 | 24976 ft | 301 kts | 87° |
| 2026-04-21 00:55 | -32.91347 | -67.88627 | 25326 ft | 302 kts | 87° |
| 2026-04-21 00:55 | -32.91299 | -67.86118 | 25681 ft | 304 kts | 87° |
| 2026-04-21 00:56 | -32.91249 | -67.83595 | 26035 ft | 306 kts | 86° |
| 2026-04-21 00:56 | -32.91198 | -67.81043 | 26395 ft | 308 kts | 86° |
| 2026-04-21 00:56 | -32.91146 | -67.78515 | 26756 ft | 310 kts | 86° |
| 2026-04-21 00:56 | -32.91093 | -67.75942 | 27123 ft | 312 kts | 86° |
| 2026-04-21 00:57 | -32.91040 | -67.73351 | 27499 ft | 314 kts | 86° |
| 2026-04-21 00:57 | -32.91003 | -67.70743 | 27852 ft | 317 kts | 90° |
| 2026-04-21 00:57 | -32.91362 | -67.68147 | 28215 ft | 320 kts | 104° |
| 2026-04-21 00:57 | -32.91898 | -67.65572 | 28583 ft | 322 kts | 105° |
| 2026-04-21 00:58 | -32.92440 | -67.62967 | 28966 ft | 324 kts | 104° |
| 2026-04-21 00:58 | -32.92945 | -67.60339 | 29329 ft | 327 kts | 103° |
| 2026-04-21 00:58 | -32.93445 | -67.57692 | 29668 ft | 329 kts | 103° |
| 2026-04-21 00:58 | -32.93965 | -67.55026 | 30026 ft | 331 kts | 104° |
| 2026-04-21 00:59 | -32.94494 | -67.52345 | 30329 ft | 333 kts | 104° |
| 2026-04-21 00:59 | -32.95012 | -67.49680 | 30581 ft | 337 kts | 103° |
| 2026-04-21 00:59 | -32.95544 | -67.46921 | 30628 ft | 348 kts | 103° |
| 2026-04-21 00:59 | -32.96099 | -67.44053 | 30631 ft | 360 kts | 103° |
| 2026-04-21 01:00 | -32.96673 | -67.41100 | 30643 ft | 371 kts | 103° |
| 2026-04-21 01:00 | -32.97260 | -67.38067 | 30656 ft | 381 kts | 103° |
| 2026-04-21 01:00 | -32.98461 | -67.31815 | 30876 ft | 390 kts | 103° |
| 2026-04-21 01:01 | -32.99069 | -67.28654 | 31069 ft | 392 kts | 103° |
| 2026-04-21 01:01 | -32.99681 | -67.25478 | 31255 ft | 394 kts | 103° |
| 2026-04-21 01:01 | -33.00285 | -67.22331 | 31452 ft | 395 kts | 103° |
| 2026-04-21 01:01 | -33.00898 | -67.19129 | 31631 ft | 397 kts | 103° |
| 2026-04-21 01:02 | -33.01514 | -67.15910 | 31816 ft | 398 kts | 103° |
| 2026-04-21 01:02 | -33.02131 | -67.12681 | 31994 ft | 400 kts | 103° |
| 2026-04-21 01:02 | -33.02748 | -67.09447 | 32172 ft | 401 kts | 103° |
| 2026-04-21 01:02 | -33.03367 | -67.06195 | 32361 ft | 402 kts | 103° |
| 2026-04-21 01:03 | -33.03987 | -67.02934 | 32545 ft | 404 kts | 103° |
| 2026-04-21 01:03 | -33.04608 | -66.99664 | 32727 ft | 405 kts | 103° |
| 2026-04-21 01:03 | -33.05223 | -66.96421 | 32904 ft | 406 kts | 103° |
| 2026-04-21 01:03 | -33.05846 | -66.93131 | 33085 ft | 406 kts | 103° |
| 2026-04-21 01:04 | -33.06466 | -66.89847 | 33250 ft | 407 kts | 103° |
| 2026-04-21 01:04 | -33.07090 | -66.86535 | 33419 ft | 409 kts | 103° |
| 2026-04-21 01:04 | -33.07715 | -66.83222 | 33563 ft | 410 kts | 103° |
| 2026-04-21 01:04 | -33.08341 | -66.79897 | 33715 ft | 411 kts | 103° |
| 2026-04-21 01:05 | -33.08973 | -66.76564 | 33870 ft | 411 kts | 103° |
| 2026-04-21 01:05 | -33.09598 | -66.73274 | 34006 ft | 412 kts | 103° |
| 2026-04-21 01:05 | -33.10230 | -66.69932 | 34147 ft | 413 kts | 103° |
| 2026-04-21 01:05 | -33.10857 | -66.66591 | 34277 ft | 414 kts | 103° |
| 2026-04-21 01:06 | -33.11488 | -66.63241 | 34408 ft | 413 kts | 103° |
| 2026-04-21 01:06 | -33.12117 | -66.59894 | 34504 ft | 414 kts | 103° |
| 2026-04-21 01:06 | -33.12747 | -66.56539 | 34608 ft | 414 kts | 103° |
| 2026-04-21 01:06 | -33.13375 | -66.53189 | 34712 ft | 414 kts | 103° |
| 2026-04-21 01:07 | -33.14002 | -66.49834 | 34818 ft | 414 kts | 103° |
| 2026-04-21 01:07 | -33.14629 | -66.46482 | 34947 ft | 414 kts | 103° |
| 2026-04-21 01:07 | -33.15246 | -66.43171 | 35049 ft | 414 kts | 103° |
| 2026-04-21 01:07 | -33.15870 | -66.39818 | 35158 ft | 414 kts | 102° |
| 2026-04-21 01:08 | -33.16493 | -66.36467 | 35260 ft | 414 kts | 103° |
| 2026-04-21 01:08 | -33.17117 | -66.33104 | 35362 ft | 414 kts | 102° |
| 2026-04-21 01:08 | -33.18153 | -66.27511 | 35537 ft | 414 kts | 102° |
| 2026-04-21 01:09 | -33.19392 | -66.20800 | 35725 ft | 414 kts | 102° |
| 2026-04-21 01:09 | -33.20626 | -66.14088 | 35892 ft | 414 kts | 102° |
| 2026-04-21 01:10 | -33.21865 | -66.07351 | 36081 ft | 414 kts | 102° |
| 2026-04-21 01:10 | -33.22681 | -66.02899 | 36191 ft | 415 kts | 102° |
| 2026-04-21 01:10 | -33.23096 | -66.00628 | 36241 ft | 415 kts | 102° |
| 2026-04-21 01:11 | -33.24318 | -65.93930 | 36473 ft | 415 kts | 102° |
| 2026-04-21 01:11 | -33.24932 | -65.90562 | 36591 ft | 414 kts | 102° |
| 2026-04-21 01:11 | -33.25545 | -65.87193 | 36711 ft | 414 kts | 102° |
| 2026-04-21 01:12 | -33.26156 | -65.83828 | 36823 ft | 414 kts | 102° |
| 2026-04-21 01:12 | -33.26766 | -65.80462 | 36932 ft | 414 kts | 101° |
| 2026-04-21 01:12 | -33.27986 | -65.73716 | 37129 ft | 414 kts | 101° |
| 2026-04-21 01:13 | -33.28594 | -65.70346 | 37244 ft | 414 kts | 101° |
| 2026-04-21 01:13 | -33.29189 | -65.67052 | 37785 ft | 398 kts | 101° |
| 2026-04-21 01:13 | -33.29759 | -65.63873 | 37974 ft | 396 kts | 101° |
| 2026-04-21 01:13 | -33.30337 | -65.60646 | 38070 ft | 396 kts | 101° |
| 2026-04-21 01:14 | -33.30916 | -65.57418 | 38182 ft | 396 kts | 101° |
| 2026-04-21 01:14 | -33.31494 | -65.54192 | 38293 ft | 396 kts | 101° |
| 2026-04-21 01:14 | -33.32071 | -65.50968 | 38395 ft | 396 kts | 101° |
| 2026-04-21 01:14 | -33.32645 | -65.47744 | 38490 ft | 395 kts | 101° |
| 2026-04-21 01:15 | -33.33783 | -65.41347 | 38669 ft | 395 kts | 101° |
| 2026-04-21 01:15 | -33.34355 | -65.38128 | 38794 ft | 395 kts | 101° |
| 2026-04-21 01:15 | -33.34924 | -65.34918 | 38890 ft | 395 kts | 100° |
| 2026-04-21 01:16 | -33.36061 | -65.28487 | 39071 ft | 394 kts | 100° |
| 2026-04-21 01:16 | -33.37193 | -65.22066 | 39232 ft | 394 kts | 100° |
| 2026-04-21 01:17 | -33.38316 | -65.15678 | 39385 ft | 394 kts | 100° |
| 2026-04-21 01:17 | -33.39440 | -65.09264 | 39549 ft | 394 kts | 100° |
| 2026-04-21 01:18 | -33.40560 | -65.02847 | 39689 ft | 394 kts | 100° |
| 2026-04-21 01:18 | -33.41678 | -64.96425 | 39899 ft | 393 kts | 100° |
| 2026-04-21 01:19 | -33.42234 | -64.93221 | 40000 ft | 393 kts | 99° |
| 2026-04-21 01:19 | -33.42790 | -64.90015 | 40101 ft | 393 kts | 99° |
| 2026-04-21 01:19 | -33.43344 | -64.86814 | 40205 ft | 393 kts | 99° |
| 2026-04-21 01:19 | -33.43891 | -64.83650 | 40302 ft | 392 kts | 99° |
| 2026-04-21 01:20 | -33.44995 | -64.77242 | 40479 ft | 392 kts | 99° |
| 2026-04-21 01:20 | -33.46095 | -64.70842 | 40676 ft | 392 kts | 99° |
| 2026-04-21 01:21 | -33.47191 | -64.64445 | 40859 ft | 392 kts | 99° |
| 2026-04-21 01:21 | -33.48281 | -64.58056 | 41050 ft | 392 kts | 99° |
| 2026-04-21 01:22 | -33.49365 | -64.51621 | 41104 ft | 395 kts | 98° |
| 2026-04-21 01:22 | -33.50395 | -64.45115 | 41131 ft | 399 kts | 98° |
| 2026-04-21 01:23 | -33.51458 | -64.38587 | 41136 ft | 403 kts | 98° |
| 2026-04-21 01:23 | -33.52518 | -64.31955 | 41138 ft | 407 kts | 98° |
| 2026-04-21 01:24 | -33.53590 | -64.25268 | 41138 ft | 410 kts | 98° |
| 2026-04-21 01:24 | -33.54662 | -64.18543 | 41135 ft | 412 kts | 98° |
| 2026-04-21 01:25 | -33.55736 | -64.11776 | 41133 ft | 414 kts | 98° |
| 2026-04-21 01:25 | -33.56806 | -64.05019 | 41131 ft | 415 kts | 98° |
| 2026-04-21 01:26 | -33.57879 | -63.98206 | 41124 ft | 417 kts | 98° |
| 2026-04-21 01:26 | -33.58956 | -63.91357 | 41123 ft | 417 kts | 98° |
| 2026-04-21 01:27 | -33.60028 | -63.84501 | 41121 ft | 418 kts | 97° |
| 2026-04-21 01:27 | -33.61092 | -63.77677 | 41121 ft | 419 kts | 97° |
| 2026-04-21 01:28 | -33.62159 | -63.70804 | 41118 ft | 419 kts | 97° |
| 2026-04-21 01:28 | -33.63224 | -63.63924 | 41114 ft | 420 kts | 97° |
| 2026-04-21 01:29 | -33.64287 | -63.57027 | 41110 ft | 420 kts | 97° |
| 2026-04-21 01:29 | -33.65347 | -63.50115 | 41105 ft | 421 kts | 97° |
| 2026-04-21 01:30 | -33.66406 | -63.43195 | 41104 ft | 421 kts | 97° |
| 2026-04-21 01:30 | -33.67453 | -63.36319 | 41097 ft | 421 kts | 97° |
| 2026-04-21 01:31 | -33.68504 | -63.29396 | 41097 ft | 421 kts | 97° |
| 2026-04-21 01:31 | -33.69549 | -63.22479 | 41092 ft | 421 kts | 97° |
| 2026-04-21 01:32 | -33.70594 | -63.15539 | 41090 ft | 421 kts | 97° |
| 2026-04-21 01:32 | -33.71631 | -63.08623 | 41086 ft | 421 kts | 97° |
| 2026-04-21 01:33 | -33.72664 | -63.01708 | 41079 ft | 420 kts | 97° |
| 2026-04-21 01:33 | -33.73719 | -62.94852 | 41077 ft | 419 kts | 98° |
| 2026-04-21 01:34 | -33.74781 | -62.87965 | 41082 ft | 419 kts | 97° |
| 2026-04-21 01:34 | -33.75831 | -62.81065 | 41078 ft | 418 kts | 97° |
| 2026-04-21 01:35 | -33.76884 | -62.74183 | 41071 ft | 418 kts | 97° |
| 2026-04-21 01:35 | -33.77917 | -62.67352 | 41071 ft | 417 kts | 97° |
| 2026-04-21 01:36 | -33.78958 | -62.60475 | 41064 ft | 417 kts | 97° |
| 2026-04-21 01:36 | -33.79988 | -62.53606 | 41066 ft | 417 kts | 97° |
| 2026-04-21 01:37 | -33.81016 | -62.46741 | 41060 ft | 417 kts | 97° |
| 2026-04-21 01:37 | -33.82038 | -62.39885 | 41055 ft | 417 kts | 97° |
| 2026-04-21 01:38 | -33.83053 | -62.33050 | 41056 ft | 416 kts | 97° |
| 2026-04-21 01:38 | -33.84067 | -62.26194 | 41051 ft | 416 kts | 97° |
| 2026-04-21 01:39 | -33.85077 | -62.19333 | 41051 ft | 416 kts | 97° |
| 2026-04-21 01:39 | -33.86084 | -62.12470 | 41047 ft | 416 kts | 97° |
| 2026-04-21 01:40 | -33.87085 | -62.05622 | 41049 ft | 416 kts | 97° |
| 2026-04-21 01:40 | -33.88084 | -61.98756 | 41043 ft | 416 kts | 97° |
| 2026-04-21 01:41 | -33.89074 | -61.91929 | 41043 ft | 416 kts | 96° |
| 2026-04-21 01:41 | -33.90062 | -61.85079 | 41042 ft | 415 kts | 96° |
| 2026-04-21 01:42 | -33.91048 | -61.78223 | 41040 ft | 415 kts | 96° |
| 2026-04-21 01:42 | -33.92024 | -61.71408 | 41036 ft | 415 kts | 96° |
| 2026-04-21 01:43 | -33.93000 | -61.64553 | 41038 ft | 415 kts | 96° |
| 2026-04-21 01:43 | -33.93971 | -61.57693 | 41034 ft | 415 kts | 96° |
| 2026-04-21 01:44 | -33.94939 | -61.50842 | 41032 ft | 414 kts | 96° |
| 2026-04-21 01:44 | -33.95898 | -61.44010 | 41030 ft | 414 kts | 96° |
| 2026-04-21 01:45 | -33.96857 | -61.37161 | 41030 ft | 414 kts | 96° |
| 2026-04-21 01:45 | -33.97803 | -61.30372 | 41026 ft | 414 kts | 96° |
| 2026-04-21 01:46 | -33.98754 | -61.23522 | 41025 ft | 414 kts | 96° |
| 2026-04-21 01:46 | -33.99700 | -61.16679 | 41026 ft | 414 kts | 96° |
| 2026-04-21 01:47 | -34.00642 | -61.09830 | 41026 ft | 414 kts | 96° |
| 2026-04-21 01:47 | -34.01574 | -61.03041 | 41025 ft | 409 kts | 96° |
| 2026-04-21 01:48 | -34.02035 | -60.99664 | 40852 ft | 411 kts | 96° |
| 2026-04-21 01:48 | -34.02502 | -60.96209 | 40346 ft | 422 kts | 96° |
| 2026-04-21 01:48 | -34.02983 | -60.92659 | 39786 ft | 435 kts | 96° |
| 2026-04-21 01:48 | -34.03480 | -60.89023 | 39207 ft | 444 kts | 96° |
| 2026-04-21 01:49 | -34.03986 | -60.85300 | 38596 ft | 454 kts | 96° |
| 2026-04-21 01:49 | -34.04495 | -60.81523 | 37946 ft | 459 kts | 96° |
| 2026-04-21 01:49 | -34.05006 | -60.77729 | 37344 ft | 457 kts | 96° |
| 2026-04-21 01:49 | -34.05509 | -60.73990 | 36748 ft | 456 kts | 96° |
| 2026-04-21 01:50 | -34.06015 | -60.70222 | 36150 ft | 455 kts | 96° |
| 2026-04-21 01:50 | -34.06520 | -60.66447 | 35551 ft | 454 kts | 96° |
| 2026-04-21 01:50 | -34.07022 | -60.62693 | 34954 ft | 453 kts | 96° |
| 2026-04-21 01:50 | -34.07524 | -60.58933 | 34354 ft | 452 kts | 96° |
| 2026-04-21 01:51 | -34.08020 | -60.55192 | 33712 ft | 451 kts | 96° |
| 2026-04-21 01:51 | -34.08514 | -60.51465 | 33115 ft | 447 kts | 96° |
| 2026-04-21 01:51 | -34.09002 | -60.47782 | 32531 ft | 442 kts | 96° |
| 2026-04-21 01:51 | -34.09483 | -60.44136 | 31949 ft | 438 kts | 96° |
| 2026-04-21 01:52 | -34.09958 | -60.40520 | 31374 ft | 434 kts | 96° |
| 2026-04-21 01:52 | -34.10878 | -60.33438 | 30250 ft | 426 kts | 95° |
| 2026-04-21 01:52 | -34.11332 | -60.29916 | 29646 ft | 421 kts | 95° |
| 2026-04-21 01:53 | -34.11790 | -60.26429 | 29086 ft | 421 kts | 96° |
| 2026-04-21 01:53 | -34.12250 | -60.22924 | 28523 ft | 423 kts | 96° |
| 2026-04-21 01:53 | -34.12706 | -60.19409 | 27968 ft | 423 kts | 96° |
| 2026-04-21 01:53 | -34.13160 | -60.15899 | 27429 ft | 422 kts | 96° |
| 2026-04-21 01:54 | -34.13606 | -60.12438 | 26879 ft | 421 kts | 96° |
| 2026-04-21 01:54 | -34.14055 | -60.08945 | 26325 ft | 420 kts | 96° |
| 2026-04-21 01:54 | -34.14502 | -60.05470 | 25774 ft | 418 kts | 96° |
| 2026-04-21 01:54 | -34.14947 | -60.02009 | 25221 ft | 416 kts | 96° |
| 2026-04-21 01:55 | -34.15390 | -59.98558 | 24672 ft | 413 kts | 96° |
| 2026-04-21 01:55 | -34.15827 | -59.95149 | 24131 ft | 410 kts | 96° |
| 2026-04-21 01:55 | -34.16113 | -59.92904 | 23778 ft | 408 kts | 96° |
| 2026-04-21 01:55 | -34.16677 | -59.88442 | 23014 ft | 402 kts | 96° |
| 2026-04-21 01:56 | -34.17099 | -59.85131 | 22490 ft | 395 kts | 97° |
| 2026-04-21 01:56 | -34.17516 | -59.81881 | 21972 ft | 388 kts | 97° |
| 2026-04-21 01:56 | -34.17786 | -59.79757 | 21633 ft | 384 kts | 97° |
| 2026-04-21 01:56 | -34.18315 | -59.75539 | 20967 ft | 376 kts | 97° |
| 2026-04-21 01:57 | -34.18574 | -59.73474 | 20636 ft | 373 kts | 97° |
| 2026-04-21 01:57 | -34.18961 | -59.70396 | 20147 ft | 368 kts | 97° |
| 2026-04-21 01:57 | -34.19343 | -59.67358 | 19667 ft | 363 kts | 97° |
| 2026-04-21 01:57 | -34.19717 | -59.64358 | 19192 ft | 360 kts | 97° |
| 2026-04-21 01:58 | -34.20086 | -59.61382 | 18724 ft | 357 kts | 97° |
| 2026-04-21 01:58 | -34.20453 | -59.58431 | 18238 ft | 354 kts | 97° |
| 2026-04-21 01:58 | -34.20819 | -59.55503 | 17748 ft | 349 kts | 97° |
| 2026-04-21 01:58 | -34.21177 | -59.52618 | 17288 ft | 345 kts | 97° |
| 2026-04-21 01:59 | -34.21531 | -59.49765 | 16836 ft | 341 kts | 97° |
| 2026-04-21 01:59 | -34.21879 | -59.46947 | 16388 ft | 338 kts | 97° |
| 2026-04-21 01:59 | -34.22233 | -59.44153 | 15945 ft | 335 kts | 99° |
| 2026-04-21 01:59 | -34.22701 | -59.41443 | 15509 ft | 332 kts | 101° |
| 2026-04-21 02:00 | -34.23088 | -59.38697 | 15074 ft | 331 kts | 98° |
| 2026-04-21 02:00 | -34.23458 | -59.35946 | 14633 ft | 331 kts | 99° |
| 2026-04-21 02:00 | -34.23883 | -59.33213 | 14201 ft | 330 kts | 101° |
| 2026-04-21 02:00 | -34.24322 | -59.30503 | 13755 ft | 329 kts | 101° |
| 2026-04-21 02:01 | -34.24735 | -59.27791 | 13294 ft | 326 kts | 100° |
| 2026-04-21 02:01 | -34.25130 | -59.25107 | 12865 ft | 324 kts | 100° |
| 2026-04-21 02:01 | -34.25533 | -59.22435 | 12450 ft | 321 kts | 100° |
| 2026-04-21 02:01 | -34.25939 | -59.19793 | 12026 ft | 319 kts | 100° |
| 2026-04-21 02:02 | -34.26338 | -59.17159 | 11608 ft | 317 kts | 100° |
| 2026-04-21 02:02 | -34.26727 | -59.14575 | 11160 ft | 315 kts | 100° |
| 2026-04-21 02:02 | -34.27117 | -59.11979 | 10737 ft | 311 kts | 100° |
| 2026-04-21 02:02 | -34.27501 | -59.09425 | 10332 ft | 307 kts | 100° |
| 2026-04-21 02:03 | -34.27882 | -59.06894 | 9923 ft | 303 kts | 100° |
| 2026-04-21 02:03 | -34.28257 | -59.04390 | 9501 ft | 300 kts | 100° |
| 2026-04-21 02:03 | -34.28627 | -59.01919 | 9106 ft | 296 kts | 100° |
| 2026-04-21 02:03 | -34.28992 | -58.99485 | 8715 ft | 292 kts | 99° |
| 2026-04-21 02:04 | -34.29347 | -58.97115 | 8341 ft | 289 kts | 99° |
| 2026-04-21 02:04 | -34.29702 | -58.94736 | 7959 ft | 286 kts | 99° |
| 2026-04-21 02:04 | -34.30052 | -58.92376 | 7579 ft | 284 kts | 99° |
| 2026-04-21 02:04 | -34.30402 | -58.90027 | 7178 ft | 283 kts | 99° |
| 2026-04-21 02:05 | -34.30752 | -58.87692 | 6796 ft | 282 kts | 99° |
| 2026-04-21 02:05 | -34.31099 | -58.85371 | 6423 ft | 279 kts | 99° |
| 2026-04-21 02:05 | -34.31437 | -58.83074 | 6047 ft | 276 kts | 98° |
| 2026-04-21 02:05 | -34.31774 | -58.80791 | 5677 ft | 273 kts | 98° |
| 2026-04-21 02:06 | -34.32109 | -58.78546 | 5317 ft | 269 kts | 98° |
| 2026-04-21 02:06 | -34.32567 | -58.76381 | 5019 ft | 264 kts | 113° |
| 2026-04-21 02:06 | -34.33674 | -58.74656 | 4984 ft | 256 kts | 131° |
| 2026-04-21 02:06 | -34.34903 | -58.73184 | 4976 ft | 239 kts | 133° |
| 2026-04-21 02:07 | -34.36022 | -58.71813 | 4965 ft | 226 kts | 131° |
| 2026-04-21 02:07 | -34.37020 | -58.70560 | 4886 ft | 222 kts | 131° |
| 2026-04-21 02:07 | -34.38064 | -58.69242 | 4690 ft | 222 kts | 131° |
| 2026-04-21 02:07 | -34.39143 | -58.67897 | 4475 ft | 222 kts | 130° |
| 2026-04-21 02:08 | -34.40220 | -58.66561 | 4249 ft | 222 kts | 131° |
| 2026-04-21 02:08 | -34.41306 | -58.65211 | 4004 ft | 224 kts | 131° |
| 2026-04-21 02:08 | -34.42397 | -58.63853 | 3761 ft | 225 kts | 130° |
| 2026-04-21 02:08 | -34.43361 | -58.62649 | 3552 ft | 221 kts | 130° |
| 2026-04-21 02:09 | -34.44422 | -58.61329 | 3304 ft | 216 kts | 130° |
| 2026-04-21 02:09 | -34.45464 | -58.60031 | 3073 ft | 214 kts | 131° |
| 2026-04-21 02:09 | -34.46392 | -58.58686 | 3006 ft | 202 kts | 121° |
| 2026-04-21 02:09 | -34.47164 | -58.57311 | 2902 ft | 190 kts | 119° |
| 2026-04-21 02:10 | -34.47840 | -58.56117 | 2692 ft | 155 kts | 118° |
| 2026-04-21 02:10 | -34.48423 | -58.55063 | 2489 ft | 150 kts | 117° |
| 2026-04-21 02:10 | -34.48982 | -58.54056 | 2299 ft | 139 kts | 117° |
| 2026-04-21 02:10 | -34.49504 | -58.53127 | 2126 ft | 130 kts | 117° |
| 2026-04-21 02:11 | -34.50004 | -58.52219 | 1959 ft | 129 kts | 116° |
| 2026-04-21 02:11 | -34.50497 | -58.51340 | 1783 ft | 124 kts | 116° |
| 2026-04-21 02:11 | -34.50973 | -58.50480 | 1626 ft | 123 kts | 117° |
| 2026-04-21 02:11 | -34.51442 | -58.49632 | 1491 ft | 119 kts | 120° |
| 2026-04-21 02:12 | -34.51913 | -58.48788 | 1329 ft | 123 kts | 121° |
| 2026-04-21 02:12 | -34.52390 | -58.47933 | 1163 ft | 120 kts | 120° |
| 2026-04-21 02:12 | -34.52846 | -58.47119 | 1010 ft | 115 kts | 116° |
| 2026-04-21 02:12 | -34.53281 | -58.46323 | 836 ft | 113 kts | 120° |
| 2026-04-21 02:13 | -34.53721 | -58.45537 | 672 ft | 108 kts | 120° |
| 2026-04-21 02:13 | -34.54125 | -58.44815 | 527 ft | 101 kts | 122° |
| 2026-04-21 02:13 | -34.54513 | -58.44118 | 395 ft | 101 kts | 121° |
| 2026-04-21 02:13 | -34.54921 | -58.43383 | 239 ft | 108 kts | 121° |
| 2026-04-21 02:14 | -34.55333 | -58.42635 | 91 ft | 103 kts | 122° |
| 2026-04-21 02:14 | -34.55698 | -58.41986 | 25 ft | 82 kts | 123° |
| 2026-04-21 02:14 | -34.55937 | -58.41551 | 19 ft | 29 kts | 124° |
| 2026-04-21 02:14 | -34.56123 | -58.41219 | 47 ft | 91 kts | 124° |
| 2026-04-21 02:15 | -34.56667 | -58.40289 | 342 ft | 126 kts | 127° |
| 2026-04-21 02:15 | -34.56534 | -58.39690 | 63 ft | 214 kts | 118° |